Startpagina
METAR-TAF:

METAR-TAF

Vliegvelden :

Bandaranaike International Airport

Colombo, Sri Lanka

breedte: 07-10N, lengte: 079-53E, hoogte: 8 m

Actueel weer

Dit bericht is 30 minuten geleden gemaakt, om 11:10 UTC
Wind 6 kt uit het noorden, variërend tussen het westnoordwesten en het noordnoordoosten
Temperatuur 28°C
Vochtigheid 74%
Druk 1009 hPa
Zicht: 8000 m
Verspreide wolken op 1700 ft
Gebroken wolken op 4000 ft

METAR: VCBI 151110Z 35006KT 300V030 8000 SCT017 BKN040 28/23 Q1009 NOSIG

Tijdstip: 17:10 (11:40 UTC)

Verwachting

Dit bericht is 40 minuten geleden gemaakt, om 11:00 UTC
Verwachting geldig van 15 om 12 UTC tot 16 om 18 UTC
Wind 8 kt uit het noordnoordoosten met uitschieters tot 18 kt
Zicht: 8000 m
Gebroken wolken op 3000 ft
Tijdelijke
van 15 om 23 UTC tot 16 om 03 UTC
Zicht: 6000 m
Wijzigt naar
van 16 om 04 UTC tot 16 om 06 UTC
Zicht 10 km of meer

TAF: VCBI 151100Z 1512/1618 02008G18KT 8000 BKN030 TX30/1608Z TN23/1523Z TEMPO 1523/1603 6000 BECMG 1604/1606 9999

Waarnemingen en weersverwachtingen van meer dan 4000 vliegvelden (METAR en TAF).

De beschikbare stations zijn de gele en rode punten op de kaart.

Ga met uw muis naar het station om de naam te zien.

Klik dan om waarnemingen en weersverwachtingen te zien.

kaart wijzigen: klik op de groene knoppen met een zwart kruis om in te zoomen, op de groene knop met een streepje om uit te zoomen of op de groene pijlen voor aangrenzende kaarten.


METAR-TAF: